createdAt,value
2018-09-14T00:00:19.610Z,101219.28
2018-09-14T00:01:23.044Z,101215.64
2018-09-14T00:02:26.467Z,101217.83
2018-09-14T00:03:29.884Z,101206.36
2018-09-14T00:04:33.371Z,101211.16
2018-09-14T00:05:36.742Z,101215.54
2018-09-14T00:06:40.157Z,101216.35
2018-09-14T00:07:43.562Z,101212.44
2018-09-14T00:08:46.944Z,101210.81
2018-09-14T00:09:50.414Z,101213.02
2018-09-14T00:10:53.810Z,101205.77
2018-09-14T00:11:57.293Z,101197.80
2018-09-14T00:13:00.718Z,101199.75
2018-09-14T00:14:04.175Z,101197.33
2018-09-14T00:15:07.628Z,101194.56
2018-09-14T00:16:11.053Z,101191.22
2018-09-14T00:17:14.483Z,101201.47
2018-09-14T00:18:17.895Z,101201.71
2018-09-14T00:19:21.264Z,101205.86
2018-09-14T00:20:24.677Z,101197.80
2018-09-14T00:21:28.077Z,101203.91
2018-09-14T00:22:31.488Z,101203.91
2018-09-14T00:23:34.945Z,101195.37
2018-09-14T00:24:38.339Z,101201.95
2018-09-14T00:25:41.727Z,101201.38
2018-09-14T00:26:45.150Z,101203.33
2018-09-14T00:27:48.658Z,101203.33
2018-09-14T00:28:52.058Z,101201.71
2018-09-14T00:29:55.449Z,101198.95
2018-09-14T00:30:58.941Z,101204.72
2018-09-14T00:32:02.314Z,101203.33
2018-09-14T00:33:05.866Z,101200.33
2018-09-14T00:34:09.437Z,101200.33
2018-09-14T00:35:12.836Z,101192.94
2018-09-14T00:36:16.238Z,101197.56
2018-09-14T00:37:19.807Z,101200.90
2018-09-14T00:38:23.173Z,101200.09
2018-09-14T00:39:26.533Z,101193.17
2018-09-14T00:40:29.963Z,101187.73
2018-09-14T00:41:33.383Z,101197.47
2018-09-14T00:42:36.862Z,101192.36
2018-09-14T00:43:40.252Z,101197.94
2018-09-14T00:44:43.617Z,101191.59
2018-09-14T00:45:46.978Z,101191.83
2018-09-14T00:46:50.368Z,101190.78
2018-09-14T00:47:53.764Z,101194.88
2018-09-14T00:48:57.199Z,101190.95
2018-09-14T00:50:00.654Z,101189.81
2018-09-14T00:51:04.102Z,101187.38
2018-09-14T00:52:07.536Z,101190.05
2018-09-14T00:53:10.934Z,101188.43
2018-09-14T00:54:14.337Z,101192.25
2018-09-14T00:55:17.728Z,101188.91
2018-09-14T00:56:21.139Z,101190.29
2018-09-14T00:57:24.490Z,101190.05
2018-09-14T00:58:27.904Z,101190.95
2018-09-14T00:59:31.270Z,101182.09
2018-09-14T01:00:34.729Z,101180.13
2018-09-14T01:01:38.162Z,101181.27
2018-09-14T01:02:41.570Z,101184.85
2018-09-14T01:03:44.950Z,101180.94
2018-09-14T01:04:48.328Z,101178.75
2018-09-14T01:05:51.702Z,101178.98
2018-09-14T01:06:55.093Z,101179.80
2018-09-14T01:07:58.482Z,101181.18
2018-09-14T01:09:01.881Z,101183.13
2018-09-14T01:10:06.566Z,101184.52
2018-09-14T01:11:09.926Z,101182.56
2018-09-14T01:12:13.333Z,101188.67
2018-09-14T01:13:16.776Z,101182.33
2018-09-14T01:14:20.171Z,101184.28
2018-09-14T01:15:23.549Z,101177.03
2018-09-14T01:16:26.941Z,101182.56
2018-09-14T01:17:30.320Z,101181.75
2018-09-14T01:18:33.909Z,101178.41
2018-09-14T01:19:37.356Z,101178.98
2018-09-14T01:20:40.732Z,101176.22
2018-09-14T01:21:44.094Z,101175.74
2018-09-14T01:22:47.507Z,101172.98
2018-09-14T01:23:50.994Z,101171.36
2018-09-14T01:24:54.415Z,101170.21
2018-09-14T01:25:57.792Z,101173.55
2018-09-14T01:27:01.216Z,101168.42
2018-09-14T01:28:04.609Z,101172.17
2018-09-14T01:29:08.016Z,101169.41
2018-09-14T01:30:11.464Z,101169.97
2018-09-14T01:31:14.780Z,101170.78
2018-09-14T01:32:18.220Z,101174.36
2018-09-14T01:33:21.637Z,101168.59
2018-09-14T01:34:25.051Z,101169.06
2018-09-14T01:35:33.848Z,101168.59
2018-09-14T01:36:37.293Z,101169.70
2018-09-14T01:37:40.769Z,101165.55
2018-09-14T01:38:44.169Z,101168.08
2018-09-14T01:39:47.561Z,101173.85
2018-09-14T01:40:50.966Z,101172.80
2018-09-14T01:41:54.345Z,101171.36
2018-09-14T01:42:57.720Z,101170.04
2018-09-14T01:44:01.105Z,101177.77
2018-09-14T01:45:04.623Z,101172.23
2018-09-14T01:46:08.365Z,101178.91
2018-09-14T01:47:11.792Z,101174.53
2018-09-14T01:48:15.173Z,101170.14
2018-09-14T01:49:18.604Z,101174.53
2018-09-14T01:50:22.043Z,101170.38
2018-09-14T01:51:25.656Z,101178.91
2018-09-14T01:52:29.049Z,101164.37
2018-09-14T01:53:32.410Z,101175.00
2018-09-14T01:54:35.828Z,101176.38
2018-09-14T01:55:39.215Z,101176.89
2018-09-14T01:56:42.918Z,101175.23
2018-09-14T01:57:46.305Z,101179.39
2018-09-14T01:58:49.746Z,101175.23
2018-09-14T01:59:53.132Z,101176.08
2018-09-14T02:00:56.706Z,101171.66
2018-09-14T02:02:00.141Z,101171.66
2018-09-14T02:03:03.523Z,101175.50
2018-09-14T02:04:07.008Z,101170.84
2018-09-14T02:05:10.433Z,101172.23
2018-09-14T02:06:14.132Z,101174.19
2018-09-14T02:07:17.520Z,101175.23
2018-09-14T02:08:21.023Z,101176.63
2018-09-14T02:09:24.454Z,101171.93
2018-09-14T02:10:27.868Z,101171.76
2018-09-14T02:11:31.263Z,101175.00
2018-09-14T02:12:34.655Z,101172.00
2018-09-14T02:13:38.053Z,101175.34
2018-09-14T02:14:41.412Z,101176.15
2018-09-14T02:15:44.831Z,101170.61
2018-09-14T02:16:48.254Z,101175.00
2018-09-14T02:17:51.648Z,101180.53
2018-09-14T02:18:55.055Z,101175.09
2018-09-14T02:19:58.466Z,101169.56
2018-09-14T02:21:02.554Z,101174.86
2018-09-14T02:22:06.216Z,101168.86
2018-09-14T02:23:09.593Z,101168.86
2018-09-14T02:24:12.960Z,101176.91
2018-09-14T02:25:16.326Z,101177.79
2018-09-14T02:26:19.996Z,101175.36
2018-09-14T02:27:23.452Z,101175.12
2018-09-14T02:28:26.838Z,101169.92
2018-09-14T02:29:30.243Z,101167.73
2018-09-14T02:30:33.676Z,101166.89
2018-09-14T02:31:37.145Z,101163.58
2018-09-14T02:32:40.579Z,101164.39
2018-09-14T02:33:43.930Z,101162.44
2018-09-14T02:34:47.304Z,101168.20
2018-09-14T02:35:50.706Z,101164.87
2018-09-14T02:36:54.086Z,101165.11
2018-09-14T02:37:57.489Z,101158.19
2018-09-14T02:39:00.902Z,101165.91
2018-09-14T02:40:04.386Z,101167.53
2018-09-14T02:41:07.823Z,101158.35
2018-09-14T02:42:11.189Z,101169.83
2018-09-14T02:43:14.624Z,101159.91
2018-09-14T02:44:18.024Z,101161.53
2018-09-14T02:45:21.406Z,101154.38
2018-09-14T02:46:24.817Z,101156.91
2018-09-14T02:47:28.210Z,101161.86
2018-09-14T02:48:31.659Z,101159.67
2018-09-14T02:49:35.078Z,101157.48
2018-09-14T02:50:38.527Z,101156.09
2018-09-14T02:51:41.964Z,101148.91
2018-09-14T02:52:45.392Z,101158.59
2018-09-14T02:53:48.871Z,101155.28
2018-09-14T02:54:52.334Z,101155.28
2018-09-14T02:55:55.713Z,101156.09
2018-09-14T02:56:59.252Z,101156.67
2018-09-14T02:58:02.695Z,101157.78
2018-09-14T02:59:06.236Z,101159.44
2018-09-14T03:00:09.704Z,101159.97
2018-09-14T03:01:13.113Z,101155.28
2018-09-14T03:02:16.524Z,101159.91
2018-09-14T03:03:19.986Z,101158.29
2018-09-14T03:04:23.424Z,101161.05
2018-09-14T03:05:26.808Z,101163.82
2018-09-14T03:06:30.268Z,101165.44
2018-09-14T03:07:34.631Z,101168.20
2018-09-14T03:08:38.101Z,101168.44
2018-09-14T03:09:41.479Z,101168.78
2018-09-14T03:10:44.886Z,101169.35
2018-09-14T03:11:48.450Z,101163.82
2018-09-14T03:12:51.868Z,101167.97
2018-09-14T03:13:55.304Z,101165.44
2018-09-14T03:14:58.747Z,101163.48
2018-09-14T03:16:02.145Z,101169.02
2018-09-14T03:17:05.615Z,101167.06
2018-09-14T03:18:09.004Z,101170.06
2018-09-14T03:19:12.397Z,101167.53
2018-09-14T03:20:15.802Z,101166.42
2018-09-14T03:21:19.185Z,101170.57
2018-09-14T03:22:22.580Z,101163.66
2018-09-14T03:23:25.970Z,101165.85
2018-09-14T03:24:29.360Z,101158.13
2018-09-14T03:25:32.776Z,101160.31
2018-09-14T03:26:36.152Z,101161.20
2018-09-14T03:27:39.575Z,101158.43
2018-09-14T03:28:42.957Z,101158.19
2018-09-14T03:29:46.374Z,101161.20
2018-09-14T03:30:49.834Z,101159.23
2018-09-14T03:31:53.237Z,101161.77
2018-09-14T03:32:56.649Z,101159.00
2018-09-14T03:34:00.020Z,101160.95
2018-09-14T03:35:03.482Z,101160.95
2018-09-14T03:36:07.509Z,101161.20
2018-09-14T03:37:10.909Z,101161.20
2018-09-14T03:38:14.316Z,101159.23
2018-09-14T03:39:17.784Z,101162.84
2018-09-14T03:40:21.178Z,101163.39
2018-09-14T03:41:24.593Z,101157.05
2018-09-14T03:42:27.982Z,101161.77
2018-09-14T03:43:31.356Z,101163.96
2018-09-14T03:44:35.030Z,101164.53
2018-09-14T03:45:38.461Z,101164.87
2018-09-14T03:46:41.875Z,101161.29
2018-09-14T03:47:45.249Z,101158.86
2018-09-14T03:48:48.837Z,101157.78
2018-09-14T03:49:52.224Z,101155.34
2018-09-14T03:50:55.622Z,101158.45
2018-09-14T03:51:59.045Z,101154.06
2018-09-14T03:53:02.613Z,101156.59
2018-09-14T03:54:06.361Z,101158.31
2018-09-14T03:55:09.773Z,101155.87
2018-09-14T03:56:13.178Z,101158.64
2018-09-14T03:57:16.643Z,101149.63
2018-09-14T03:58:20.005Z,101153.20
2018-09-14T03:59:23.402Z,101154.59
2018-09-14T04:00:26.829Z,101157.02
2018-09-14T04:01:30.209Z,101158.17
2018-09-14T04:02:33.630Z,101158.98
2018-09-14T04:03:37.075Z,101163.22
2018-09-14T04:04:40.461Z,101160.70
2018-09-14T04:05:43.883Z,101157.36
2018-09-14T04:06:47.284Z,101168.98
2018-09-14T04:07:50.757Z,101154.92
2018-09-14T04:08:54.115Z,101162.98
2018-09-14T04:09:57.490Z,101164.09
2018-09-14T04:11:00.877Z,101162.71
2018-09-14T04:12:04.427Z,101166.63
2018-09-14T04:13:07.835Z,101163.62
2018-09-14T04:14:11.225Z,101167.77
2018-09-14T04:15:14.620Z,101165.00
2018-09-14T04:16:18.043Z,101163.38
2018-09-14T04:17:21.480Z,101169.72
2018-09-14T04:18:24.931Z,101160.38
2018-09-14T04:19:28.339Z,101168.43
2018-09-14T04:20:31.720Z,101169.00
2018-09-14T04:21:36.448Z,101172.58
2018-09-14T04:22:39.802Z,101164.52
2018-09-14T04:23:43.357Z,101170.39
2018-09-14T04:24:46.666Z,101173.72
2018-09-14T04:25:50.083Z,101169.34
2018-09-14T04:26:53.507Z,101177.06
2018-09-14T04:27:56.933Z,101172.67
2018-09-14T04:29:00.876Z,101167.95
2018-09-14T04:30:04.753Z,101173.01
2018-09-14T04:31:08.141Z,101168.86
2018-09-14T04:32:11.549Z,101175.77
2018-09-14T04:33:14.945Z,101168.63
2018-09-14T04:34:18.352Z,101171.14
2018-09-14T04:35:21.742Z,101168.38
2018-09-14T04:36:25.170Z,101160.24
2018-09-14T04:37:28.570Z,101167.33
2018-09-14T04:38:32.098Z,101171.48
2018-09-14T04:39:35.454Z,101161.72
2018-09-14T04:40:38.886Z,101166.28
2018-09-14T04:41:42.304Z,101166.28
2018-09-14T04:42:45.704Z,101165.71
2018-09-14T04:43:49.704Z,101161.33
2018-09-14T04:44:53.096Z,101160.91
2018-09-14T04:45:56.489Z,101156.91
2018-09-14T04:46:59.916Z,101160.24
2018-09-14T04:48:03.533Z,101163.01
2018-09-14T04:49:07.299Z,101162.77
2018-09-14T04:50:10.695Z,101158.86
2018-09-14T04:51:14.152Z,101151.00
2018-09-14T04:52:17.524Z,101159.10
2018-09-14T04:53:20.944Z,101159.84
2018-09-14T04:54:24.371Z,101163.42
2018-09-14T04:55:27.772Z,101164.23
2018-09-14T04:56:31.171Z,101164.47
2018-09-14T04:57:34.615Z,101167.72
2018-09-14T04:58:38.106Z,101164.95
2018-09-14T04:59:41.485Z,101169.34
2018-09-14T05:00:44.893Z,101163.57
2018-09-14T05:01:48.276Z,101160.80
2018-09-14T05:02:51.633Z,101166.09
2018-09-14T05:03:55.088Z,101166.76
2018-09-14T05:04:58.457Z,101160.48
2018-09-14T05:06:01.836Z,101170.33
2018-09-14T05:07:05.263Z,101173.91
2018-09-14T05:08:08.685Z,101168.95
2018-09-14T05:09:12.112Z,101166.66
2018-09-14T05:10:15.540Z,101163.33
2018-09-14T05:11:18.948Z,101165.19
2018-09-14T05:12:22.373Z,101169.34
2018-09-14T05:13:25.915Z,101161.95
2018-09-14T05:14:29.442Z,101167.23
2018-09-14T05:15:32.840Z,101157.72
2018-09-14T05:16:36.258Z,101165.62
2018-09-14T05:17:39.646Z,101165.71
2018-09-14T05:18:43.084Z,101166.52
2018-09-14T05:19:46.518Z,101164.09
2018-09-14T05:20:49.956Z,101167.73
2018-09-14T05:21:53.343Z,101166.67
2018-09-14T05:22:56.751Z,101166.20
2018-09-14T05:24:00.153Z,101164.91
2018-09-14T05:25:03.634Z,101167.77
2018-09-14T05:26:07.062Z,101166.80
2018-09-14T05:27:10.530Z,101162.81
2018-09-14T05:28:13.958Z,101167.47
2018-09-14T05:29:17.366Z,101162.66
2018-09-14T05:30:20.824Z,101168.61
2018-09-14T05:31:24.308Z,101164.89
2018-09-14T05:32:27.718Z,101169.48
2018-09-14T05:33:31.137Z,101167.12
2018-09-14T05:34:34.510Z,101168.36
2018-09-14T05:35:37.938Z,101168.77
2018-09-14T05:36:41.362Z,101176.88
2018-09-14T05:37:44.771Z,101171.19
2018-09-14T05:38:48.173Z,101171.37
2018-09-14T05:39:51.580Z,101159.73
2018-09-14T05:40:54.990Z,101173.41
2018-09-14T05:41:58.401Z,101168.34
2018-09-14T05:43:01.822Z,101173.21
2018-09-14T05:44:05.424Z,101176.06
2018-09-14T05:45:09.386Z,101168.43
2018-09-14T05:46:12.826Z,101175.09
2018-09-14T05:47:16.221Z,101180.37
2018-09-14T05:48:19.657Z,101177.94
2018-09-14T05:49:23.002Z,101179.64
2018-09-14T05:50:26.675Z,101186.54
2018-09-14T05:51:30.095Z,101184.08
2018-09-14T05:52:34.318Z,101185.54
2018-09-14T05:53:37.738Z,101184.64
2018-09-14T05:54:41.176Z,101189.11
2018-09-14T05:55:44.557Z,101182.78
2018-09-14T05:56:47.925Z,101189.68
2018-09-14T05:57:51.307Z,101181.56
2018-09-14T05:58:54.721Z,101185.86
2018-09-14T05:59:58.129Z,101189.44
2018-09-14T06:01:01.533Z,101185.63
2018-09-14T06:02:04.982Z,101187.48
2018-09-14T06:03:08.419Z,101192.92
2018-09-14T06:04:11.847Z,101193.20
2018-09-14T06:05:15.329Z,101190.92
2018-09-14T06:06:18.711Z,101187.52
2018-09-14T06:07:22.086Z,101186.62
2018-09-14T06:08:25.492Z,101186.05
2018-09-14T06:09:28.862Z,101184.09
2018-09-14T06:10:32.230Z,101180.69
2018-09-14T06:11:35.678Z,101175.81
2018-09-14T06:12:39.108Z,101185.26
2018-09-14T06:13:42.523Z,101191.02
2018-09-14T06:14:45.880Z,101188.50
2018-09-14T06:15:49.445Z,101192.89
2018-09-14T06:16:52.878Z,101186.55
2018-09-14T06:17:56.272Z,101198.89
2018-09-14T06:18:59.765Z,101192.80
2018-09-14T06:20:03.770Z,101191.66
2018-09-14T06:21:07.207Z,101197.19
2018-09-14T06:22:10.604Z,101197.67
2018-09-14T06:23:14.056Z,101193.77
2018-09-14T06:24:17.463Z,101187.44
2018-09-14T06:25:20.873Z,101194.34
2018-09-14T06:26:24.258Z,101184.91
2018-09-14T06:27:27.656Z,101192.39
2018-09-14T06:28:31.042Z,101190.11
2018-09-14T06:29:34.448Z,101192.81
2018-09-14T06:30:37.939Z,101185.10
2018-09-14T06:31:41.308Z,101194.27
2018-09-14T06:32:44.730Z,101193.70
2018-09-14T06:33:48.194Z,101197.59
2018-09-14T06:34:51.586Z,101194.52
2018-09-14T06:35:54.984Z,101203.13
2018-09-14T06:36:58.387Z,101197.59
2018-09-14T06:38:01.738Z,101205.08
2018-09-14T06:39:08.094Z,101194.92
2018-09-14T06:40:11.507Z,101198.02
2018-09-14T06:41:14.888Z,101192.63
2018-09-14T06:42:18.336Z,101204.44
2018-09-14T06:43:21.750Z,101198.97
2018-09-14T06:44:25.142Z,101204.48
2018-09-14T06:45:28.573Z,101204.58
2018-09-14T06:46:31.983Z,101204.33
2018-09-14T06:47:35.401Z,101202.14
2018-09-14T06:48:38.796Z,101196.95
2018-09-14T06:49:42.287Z,101200.03
2018-09-14T06:50:45.666Z,101206.37
2018-09-14T06:51:49.143Z,101206.13
2018-09-14T06:52:52.591Z,101205.64
2018-09-14T06:53:56.000Z,101200.69
2018-09-14T06:54:59.439Z,101204.02
2018-09-14T06:56:03.299Z,101207.34
2018-09-14T06:57:06.805Z,101203.26
2018-09-14T06:58:10.234Z,101195.63
2018-09-14T06:59:13.616Z,101201.88
2018-09-14T07:00:17.236Z,101204.39
2018-09-14T07:01:20.586Z,101204.16
2018-09-14T07:02:24.014Z,101202.77
2018-09-14T07:03:27.412Z,101202.53
2018-09-14T07:04:30.808Z,101203.42
2018-09-14T07:05:34.201Z,101200.50
2018-09-14T07:06:37.574Z,101208.13
2018-09-14T07:07:40.981Z,101208.70
2018-09-14T07:08:44.360Z,101201.97
2018-09-14T07:09:47.746Z,101212.60
2018-09-14T07:10:51.199Z,101209.59
2018-09-14T07:11:54.600Z,101214.30
2018-09-14T07:12:58.011Z,101209.11
2018-09-14T07:14:01.421Z,101210.49
2018-09-14T07:15:04.937Z,101208.11
2018-09-14T07:16:08.450Z,101205.11
2018-09-14T07:17:11.848Z,101213.91
2018-09-14T07:18:15.245Z,101218.53
2018-09-14T07:19:18.648Z,101216.91
2018-09-14T07:20:22.102Z,101217.47
2018-09-14T07:21:25.538Z,101223.29
2018-09-14T07:22:28.976Z,101214.44
2018-09-14T07:23:32.428Z,101221.91
2018-09-14T07:24:35.874Z,101223.05
2018-09-14T07:25:39.328Z,101218.47
2018-09-14T07:26:42.739Z,101225.23
2018-09-14T07:27:46.164Z,101222.48
2018-09-14T07:28:49.894Z,101228.81
2018-09-14T07:29:53.526Z,101226.62
2018-09-14T07:30:56.932Z,101228.48
2018-09-14T07:32:00.332Z,101224.59
2018-09-14T07:33:03.814Z,101224.02
2018-09-14T07:34:07.244Z,101220.13
2018-09-14T07:35:10.657Z,101219.39
2018-09-14T07:36:14.344Z,101226.37
2018-09-14T07:37:17.717Z,101229.38
2018-09-14T07:38:21.152Z,101224.10
2018-09-14T07:39:24.534Z,101227.70
2018-09-14T07:40:28.035Z,101229.33
2018-09-14T07:41:31.435Z,101229.00
2018-09-14T07:42:34.887Z,101232.81
2018-09-14T07:43:38.269Z,101230.06
2018-09-14T07:44:41.660Z,101235.83
2018-09-14T07:45:45.071Z,101232.50
2018-09-14T07:46:48.479Z,101231.36
2018-09-14T07:47:51.884Z,101233.55
2018-09-14T07:48:55.333Z,101242.41
2018-09-14T07:49:58.723Z,101234.93
2018-09-14T07:51:02.122Z,101228.27
2018-09-14T07:52:06.033Z,101240.94
2018-09-14T07:53:09.394Z,101238.17
2018-09-14T07:54:12.796Z,101232.66
2018-09-14T07:55:16.248Z,101234.28
2018-09-14T07:56:19.623Z,101233.71
2018-09-14T07:57:23.053Z,101234.28
2018-09-14T07:58:26.481Z,101237.28
2018-09-14T07:59:29.938Z,101237.28
2018-09-14T08:00:33.424Z,101240.29
2018-09-14T08:01:36.872Z,101245.00
2018-09-14T08:02:40.271Z,101240.29
2018-09-14T08:03:43.677Z,101239.80
2018-09-14T08:04:47.084Z,101241.09
2018-09-14T08:05:50.512Z,101239.39
2018-09-14T08:06:53.955Z,101245.24
2018-09-14T08:07:57.362Z,101243.00
2018-09-14T08:09:00.779Z,101243.23
2018-09-14T08:10:04.272Z,101245.44
2018-09-14T08:11:07.684Z,101246.57
2018-09-14T08:12:11.139Z,101244.05
2018-09-14T08:13:14.606Z,101236.09
2018-09-14T08:14:18.228Z,101243.81
2018-09-14T08:15:21.694Z,101242.67
2018-09-14T08:16:25.077Z,101243.97
2018-09-14T08:17:28.517Z,101238.53
2018-09-14T08:18:31.948Z,101244.45
2018-09-14T08:19:35.404Z,101244.45
2018-09-14T08:20:38.828Z,101245.51
2018-09-14T08:21:42.397Z,101242.75
2018-09-14T08:22:46.019Z,101246.89
2018-09-14T08:23:49.442Z,101241.45
2018-09-14T08:24:52.879Z,101249.66
2018-09-14T08:25:56.429Z,101246.65
2018-09-14T08:26:59.830Z,101245.84
2018-09-14T08:28:04.450Z,101246.41
2018-09-14T08:29:07.869Z,101238.45
2018-09-14T08:30:11.289Z,101250.55
2018-09-14T08:31:14.662Z,101247.30
2018-09-14T08:32:18.052Z,101246.48
2018-09-14T08:33:21.495Z,101246.25
2018-09-14T08:34:24.932Z,101246.25
2018-09-14T08:35:28.291Z,101253.72
2018-09-14T08:36:31.691Z,101246.57
2018-09-14T08:37:35.095Z,101245.76
2018-09-14T08:38:38.679Z,101252.39
2018-09-14T08:39:42.088Z,101253.20
2018-09-14T08:40:45.510Z,101250.77
2018-09-14T08:41:48.881Z,101251.33
2018-09-14T08:42:52.336Z,101249.14
2018-09-14T08:43:55.768Z,101263.75
2018-09-14T08:44:59.137Z,101256.05
2018-09-14T08:46:02.532Z,101254.42
2018-09-14T08:47:06.240Z,101262.13
2018-09-14T08:48:09.662Z,101262.13
2018-09-14T08:49:13.055Z,101262.95
2018-09-14T08:50:16.486Z,101254.50
2018-09-14T08:51:19.896Z,101251.25
2018-09-14T08:52:23.301Z,101259.38
2018-09-14T08:53:26.690Z,101258.23
2018-09-14T08:54:30.115Z,101258.80
2018-09-14T08:55:33.545Z,101265.70
2018-09-14T08:56:36.974Z,101257.66
2018-09-14T08:57:40.353Z,101258.19
2018-09-14T08:58:43.753Z,101268.66
2018-09-14T08:59:47.246Z,101265.90
2018-09-14T09:00:50.647Z,101265.33
2018-09-14T09:01:54.037Z,101262.00
2018-09-14T09:02:57.417Z,101266.71
2018-09-14T09:04:01.006Z,101265.90
2018-09-14T09:05:04.592Z,101265.33
2018-09-14T09:06:08.015Z,101252.47
2018-09-14T09:07:11.875Z,101265.90
2018-09-14T09:08:15.222Z,101267.58
2018-09-14T09:09:19.034Z,101266.19
2018-09-14T09:10:22.716Z,101258.97
2018-09-14T09:11:26.388Z,101272.28
2018-09-14T09:12:29.791Z,101263.19
2018-09-14T09:13:33.197Z,101267.90
2018-09-14T09:14:36.632Z,101262.78
2018-09-14T09:15:40.057Z,101253.36
2018-09-14T09:16:43.728Z,101266.52
2018-09-14T09:17:47.290Z,101267.90
2018-09-14T09:18:50.725Z,101264.33
2018-09-14T09:19:54.160Z,101266.52
2018-09-14T09:20:57.582Z,101264.33
2018-09-14T09:22:01.060Z,101269.28
2018-09-14T09:23:04.660Z,101263.52
2018-09-14T09:24:08.052Z,101262.95
2018-09-14T09:25:11.473Z,101254.66
2018-09-14T09:26:14.871Z,101263.19
2018-09-14T09:27:18.264Z,101263.52
2018-09-14T09:28:21.651Z,101260.19
2018-09-14T09:29:25.054Z,101262.13
2018-09-14T09:30:28.447Z,101258.31
2018-09-14T09:31:31.873Z,101256.86
2018-09-14T09:32:35.292Z,101258.48
2018-09-14T09:33:38.713Z,101252.14
2018-09-14T09:34:42.115Z,101257.66
2018-09-14T09:35:45.522Z,101254.09
2018-09-14T09:36:49.163Z,101251.09
2018-09-14T09:37:52.558Z,101249.95
2018-09-14T09:38:56.300Z,101246.63
2018-09-14T09:40:00.297Z,101245.56
2018-09-14T09:41:05.590Z,101243.62
2018-09-14T09:42:09.231Z,101242.80
2018-09-14T09:43:12.691Z,101242.89
2018-09-14T09:44:16.067Z,101246.95
2018-09-14T09:45:19.465Z,101249.95
2018-09-14T09:46:22.911Z,101244.43
2018-09-14T09:47:26.316Z,101241.91
2018-09-14T09:48:29.804Z,101236.72
2018-09-14T09:49:33.224Z,101241.67
2018-09-14T09:50:36.644Z,101237.28
2018-09-14T09:51:40.161Z,101239.80
2018-09-14T09:52:43.614Z,101237.28
2018-09-14T09:53:47.006Z,101237.53
2018-09-14T09:54:50.373Z,101231.60
2018-09-14T09:55:53.799Z,101237.85
2018-09-14T09:56:57.247Z,101238.66
2018-09-14T09:58:00.641Z,101239.80
2018-09-14T09:59:04.110Z,101237.85
2018-09-14T10:00:11.730Z,101228.59
2018-09-14T10:01:20.387Z,101229.16
2018-09-14T10:02:29.186Z,101227.78
2018-09-14T10:03:37.811Z,101235.09
2018-09-14T10:04:45.340Z,101234.28
2018-09-14T10:06:26.930Z,101231.84
2018-09-14T10:07:30.361Z,101234.61
2018-09-14T10:08:33.798Z,101235.42
2018-09-14T10:09:37.186Z,101233.47
2018-09-14T10:10:40.546Z,101232.41
2018-09-14T10:11:44.003Z,101234.03
2018-09-14T10:12:47.419Z,101237.94
2018-09-14T10:13:50.852Z,101242.08
2018-09-14T10:14:54.418Z,101237.69
2018-09-14T10:15:57.815Z,101239.31
2018-09-14T10:17:01.240Z,101235.17
2018-09-14T10:18:04.715Z,101230.88
2018-09-14T10:19:08.221Z,101234.36
2018-09-14T10:20:11.632Z,101237.13
2018-09-14T10:21:15.203Z,101236.55
2018-09-14T10:22:18.541Z,101232.58
2018-09-14T10:23:21.997Z,101232.98
2018-09-14T10:24:25.384Z,101238.27
2018-09-14T10:25:28.774Z,101234.93
2018-09-14T10:26:32.189Z,101236.06
2018-09-14T10:27:35.651Z,101239.31
2018-09-14T10:28:39.137Z,101237.69
2018-09-14T10:29:42.636Z,101224.86
2018-09-14T10:30:46.508Z,101233.30
2018-09-14T10:31:49.897Z,101233.55
2018-09-14T10:32:53.295Z,101222.91
2018-09-14T10:33:56.693Z,101226.97
2018-09-14T10:35:00.163Z,101223.64
2018-09-14T10:36:03.841Z,101224.45
2018-09-14T10:37:07.320Z,101225.84
2018-09-14T10:38:10.723Z,101222.02
2018-09-14T10:39:14.106Z,101220.88
2018-09-14T10:40:17.639Z,101223.16
2018-09-14T10:41:21.012Z,101219.27
2018-09-14T10:42:24.507Z,101219.50
2018-09-14T10:43:27.974Z,101209.44
2018-09-14T10:44:31.395Z,101215.93
2018-09-14T10:45:34.837Z,101210.98
2018-09-14T10:46:38.280Z,101211.22
2018-09-14T10:47:41.687Z,101213.17
2018-09-14T10:48:45.104Z,101209.36
2018-09-14T10:49:48.619Z,101212.36
2018-09-14T10:50:52.026Z,101196.77
2018-09-14T10:51:55.412Z,101199.20
2018-09-14T10:52:58.774Z,101206.02
2018-09-14T10:54:02.253Z,101201.31
2018-09-14T10:55:05.774Z,101203.02
2018-09-14T10:56:09.192Z,101200.26
2018-09-14T10:57:12.820Z,101202.21
2018-09-14T10:58:16.219Z,101201.48
2018-09-14T10:59:19.590Z,101204.97
2018-09-14T11:00:23.008Z,101204.41
2018-09-14T11:01:26.397Z,101202.21
2018-09-14T11:02:29.835Z,101198.88
2018-09-14T11:03:33.233Z,101195.96
2018-09-14T11:04:37.201Z,101201.97
2018-09-14T11:05:40.616Z,101204.97
2018-09-14T11:06:44.096Z,101199.45
2018-09-14T11:07:47.483Z,101206.35
2018-09-14T11:08:50.990Z,101199.45
2018-09-14T11:09:54.471Z,101203.19
2018-09-14T11:10:57.881Z,101197.66
2018-09-14T11:12:01.267Z,101190.36
2018-09-14T11:13:04.775Z,101195.71
2018-09-14T11:14:08.775Z,101188.89
2018-09-14T11:15:12.185Z,101195.14
2018-09-14T11:16:15.627Z,101182.31
2018-09-14T11:17:19.071Z,101190.52
2018-09-14T11:18:22.723Z,101192.47
2018-09-14T11:19:26.148Z,101181.64
2018-09-14T11:20:30.151Z,101185.41
2018-09-14T11:21:33.752Z,101192.06
2018-09-14T11:22:37.399Z,101187.97
2018-09-14T11:23:40.841Z,101184.89
2018-09-14T11:24:44.375Z,101187.00
2018-09-14T11:25:47.729Z,101190.33
2018-09-14T11:26:51.128Z,101187.33
2018-09-14T11:27:54.660Z,101187.48
2018-09-14T11:28:58.121Z,101191.73
2018-09-14T11:30:01.523Z,101188.73
2018-09-14T11:31:04.999Z,101182.64
2018-09-14T11:32:08.425Z,101182.08
2018-09-14T11:33:11.793Z,101172.73
2018-09-14T11:34:15.186Z,101184.99
2018-09-14T11:35:18.610Z,101183.53
2018-09-14T11:36:22.035Z,101177.69
2018-09-14T11:37:25.553Z,101176.78
2018-09-14T11:38:29.097Z,101178.41
2018-09-14T11:39:32.507Z,101177.55
2018-09-14T11:40:35.960Z,101174.21
2018-09-14T11:41:39.664Z,101173.64
2018-09-14T11:42:43.050Z,101169.50
2018-09-14T11:43:46.449Z,101169.27
2018-09-14T11:44:49.931Z,101168.69
2018-09-14T11:45:53.420Z,101159.41
2018-09-14T11:46:56.861Z,101168.13
2018-09-14T11:48:00.292Z,101171.94
2018-09-14T11:49:03.716Z,101164.22
2018-09-14T11:50:07.157Z,101164.47
2018-09-14T11:51:10.559Z,101166.98
2018-09-14T11:52:13.980Z,101170.80
2018-09-14T11:53:17.405Z,101162.27
2018-09-14T11:54:20.937Z,101156.75
2018-09-14T11:55:24.289Z,101158.94
2018-09-14T11:56:27.715Z,101163.66
2018-09-14T11:57:31.122Z,101159.51
2018-09-14T11:58:34.561Z,101154.56
2018-09-14T11:59:38.064Z,101156.50
2018-09-14T12:00:41.520Z,101153.98
2018-09-14T12:01:44.915Z,101155.13
2018-09-14T12:02:48.328Z,101150.75
2018-09-14T12:03:51.731Z,101155.45
2018-09-14T12:04:56.406Z,101148.84